Riceton, Canada
Current Conditions -  °F | °C
As of 11:00 PM on Friday 28 Nov 2014 (Local Time) from CYQR Reporting Station
Light Snow Light Snow  
Wind Chill:   Ceiling: 4500
Heat Index: 12°   Visibility: 6mi
Dew Point:   Wind: 7mph
Humidity: 85%   Direction: 330°NNW
Pressure: 29.5"   Gusts: NA
Location:  50.1°N, 104.32°W
Report Text: CYQR 290500Z 33006KT 6SM -SN OVC045 M11/M13 A2950 RMK SC8 SLP031
Loading
Personal Weather Stations






























Interactive Weather Map New forecast layout! Learn more

10-Day Weather Forecast

Advertisements
Track Severe Weather on mobile